sensor_id;sensor_type;location;lat;lon;timestamp;P1;durP1;ratioP1;P2;durP2;ratioP2
30243;SDS011;64022;53.652;9.792;2023-02-08T00:01:48;43.83;;;29.17;;
30243;SDS011;64022;53.652;9.792;2023-02-08T00:04:14;43.60;;;28.83;;
30243;SDS011;64022;53.652;9.792;2023-02-08T00:06:39;47.00;;;30.13;;
30243;SDS011;64022;53.652;9.792;2023-02-08T00:09:05;46.00;;;30.50;;
30243;SDS011;64022;53.652;9.792;2023-02-08T00:11:31;44.37;;;29.13;;
30243;SDS011;64022;53.652;9.792;2023-02-08T00:13:57;42.93;;;29.33;;
30243;SDS011;64022;53.652;9.792;2023-02-08T00:16:22;39.53;;;28.20;;
30243;SDS011;64022;53.652;9.792;2023-02-08T00:18:47;42.47;;;30.10;;
30243;SDS011;64022;53.652;9.792;2023-02-08T00:21:14;43.73;;;29.80;;
30243;SDS011;64022;53.652;9.792;2023-02-08T00:23:41;44.78;;;30.75;;
30243;SDS011;64022;53.652;9.792;2023-02-08T00:26:07;43.70;;;29.38;;
30243;SDS011;64022;53.652;9.792;2023-02-08T00:28:33;42.30;;;29.52;;
30243;SDS011;64022;53.652;9.792;2023-02-08T00:30:59;45.00;;;28.60;;
30243;SDS011;64022;53.652;9.792;2023-02-08T00:33:25;43.87;;;29.87;;
30243;SDS011;64022;53.652;9.792;2023-02-08T00:35:50;42.70;;;29.87;;
30243;SDS011;64022;53.652;9.792;2023-02-08T00:38:21;41.08;;;28.08;;
30243;SDS011;64022;53.652;9.792;2023-02-08T00:40:47;43.70;;;29.83;;
30243;SDS011;64022;53.652;9.792;2023-02-08T00:43:12;44.53;;;30.37;;
30243;SDS011;64022;53.652;9.792;2023-02-08T00:45:38;40.17;;;27.97;;
30243;SDS011;64022;53.652;9.792;2023-02-08T00:48:03;40.83;;;28.77;;
30243;SDS011;64022;53.652;9.792;2023-02-08T00:50:29;44.23;;;30.07;;
30243;SDS011;64022;53.652;9.792;2023-02-08T00:52:55;42.77;;;28.27;;
30243;SDS011;64022;53.652;9.792;2023-02-08T00:55:22;44.88;;;29.25;;
30243;SDS011;64022;53.652;9.792;2023-02-08T00:57:47;45.63;;;29.37;;
30243;SDS011;64022;53.652;9.792;2023-02-08T01:00:13;45.83;;;29.90;;
30243;SDS011;64022;53.652;9.792;2023-02-08T01:02:38;44.60;;;29.20;;
30243;SDS011;64022;53.652;9.792;2023-02-08T01:05:04;42.13;;;27.67;;
30243;SDS011;64022;53.652;9.792;2023-02-08T01:07:30;43.93;;;29.63;;
30243;SDS011;64022;53.652;9.792;2023-02-08T01:09:55;43.93;;;28.67;;
30243;SDS011;64022;53.652;9.792;2023-02-08T01:12:21;44.20;;;29.53;;
30243;SDS011;64022;53.652;9.792;2023-02-08T01:14:46;42.20;;;27.53;;
30243;SDS011;64022;53.652;9.792;2023-02-08T01:17:12;44.80;;;30.03;;
30243;SDS011;64022;53.652;9.792;2023-02-08T01:19:37;42.20;;;29.70;;
30243;SDS011;64022;53.652;9.792;2023-02-08T01:22:03;42.30;;;28.43;;
30243;SDS011;64022;53.652;9.792;2023-02-08T01:24:28;41.97;;;27.67;;
30243;SDS011;64022;53.652;9.792;2023-02-08T01:26:54;40.80;;;28.90;;
30243;SDS011;64022;53.652;9.792;2023-02-08T01:29:19;40.77;;;27.57;;
30243;SDS011;64022;53.652;9.792;2023-02-08T01:31:45;41.60;;;27.97;;
30243;SDS011;64022;53.652;9.792;2023-02-08T01:34:11;40.77;;;27.20;;
30243;SDS011;64022;53.652;9.792;2023-02-08T01:36:37;40.67;;;26.83;;
30243;SDS011;64022;53.652;9.792;2023-02-08T01:39:04;41.72;;;27.73;;
30243;SDS011;64022;53.652;9.792;2023-02-08T01:41:32;43.10;;;28.33;;
30243;SDS011;64022;53.652;9.792;2023-02-08T01:46:25;42.80;;;27.60;;
30243;SDS011;64022;53.652;9.792;2023-02-08T01:48:50;41.70;;;28.47;;
30243;SDS011;64022;53.652;9.792;2023-02-08T01:51:21;42.55;;;27.73;;
30243;SDS011;64022;53.652;9.792;2023-02-08T01:53:49;41.60;;;26.88;;
30243;SDS011;64022;53.652;9.792;2023-02-08T01:56:19;40.35;;;27.65;;
30243;SDS011;64022;53.652;9.792;2023-02-08T01:58:48;41.40;;;27.98;;
30243;SDS011;64022;53.652;9.792;2023-02-08T02:01:17;40.95;;;26.58;;
30243;SDS011;64022;53.652;9.792;2023-02-08T02:03:42;42.73;;;28.50;;
30243;SDS011;64022;53.652;9.792;2023-02-08T02:06:19;38.73;;;26.40;;
30243;SDS011;64022;53.652;9.792;2023-02-08T02:08:52;39.38;;;26.35;;
30243;SDS011;64022;53.652;9.792;2023-02-08T02:11:27;38.13;;;26.95;;
30243;SDS011;64022;53.652;9.792;2023-02-08T02:13:53;41.47;;;28.13;;
30243;SDS011;64022;53.652;9.792;2023-02-08T02:16:19;39.27;;;27.53;;
30243;SDS011;64022;53.652;9.792;2023-02-08T02:18:44;41.53;;;27.67;;
30243;SDS011;64022;53.652;9.792;2023-02-08T02:38:02;40.08;;;27.08;;
30243;SDS011;64022;53.652;9.792;2023-02-08T02:43:32;37.50;;;25.02;;
30243;SDS011;64022;53.652;9.792;2023-02-08T02:49:12;35.85;;;24.27;;
30243;SDS011;64022;53.652;9.792;2023-02-08T02:56:54;36.55;;;25.75;;
30243;SDS011;64022;53.652;9.792;2023-02-08T02:59:23;39.92;;;26.40;;
30243;SDS011;64022;53.652;9.792;2023-02-08T03:01:52;36.00;;;24.92;;
30243;SDS011;64022;53.652;9.792;2023-02-08T03:18:14;34.78;;;23.52;;
30243;SDS011;64022;53.652;9.792;2023-02-08T03:24:08;34.13;;;23.08;;
30243;SDS011;64022;53.652;9.792;2023-02-08T03:34:11;38.25;;;24.95;;
30243;SDS011;64022;53.652;9.792;2023-02-08T03:36:52;35.83;;;23.88;;
30243;SDS011;64022;53.652;9.792;2023-02-08T03:39:27;35.92;;;22.60;;
30243;SDS011;64022;53.652;9.792;2023-02-08T03:41:57;32.42;;;22.95;;
30243;SDS011;64022;53.652;9.792;2023-02-08T03:44:33;32.22;;;23.63;;
30243;SDS011;64022;53.652;9.792;2023-02-08T03:47:04;34.67;;;23.95;;
30243;SDS011;64022;53.652;9.792;2023-02-08T03:49:37;32.95;;;23.42;;
30243;SDS011;64022;53.652;9.792;2023-02-08T03:52:05;32.22;;;23.35;;
30243;SDS011;64022;53.652;9.792;2023-02-08T03:54:35;33.53;;;22.88;;
30243;SDS011;64022;53.652;9.792;2023-02-08T03:57:20;32.60;;;22.63;;
30243;SDS011;64022;53.652;9.792;2023-02-08T03:59:50;33.95;;;21.50;;
30243;SDS011;64022;53.652;9.792;2023-02-08T04:02:20;33.72;;;22.25;;
30243;SDS011;64022;53.652;9.792;2023-02-08T04:04:50;32.90;;;22.13;;
30243;SDS011;64022;53.652;9.792;2023-02-08T04:07:17;32.05;;;21.48;;
30243;SDS011;64022;53.652;9.792;2023-02-08T04:09:43;33.75;;;22.73;;
30243;SDS011;64022;53.652;9.792;2023-02-08T04:12:09;29.63;;;21.37;;
30243;SDS011;64022;53.652;9.792;2023-02-08T04:14:35;34.17;;;22.00;;
30243;SDS011;64022;53.652;9.792;2023-02-08T04:17:00;30.30;;;21.50;;
30243;SDS011;64022;53.652;9.792;2023-02-08T04:19:26;31.93;;;21.80;;
30243;SDS011;64022;53.652;9.792;2023-02-08T04:21:52;28.27;;;19.90;;
30243;SDS011;64022;53.652;9.792;2023-02-08T04:24:17;32.23;;;21.57;;
30243;SDS011;64022;53.652;9.792;2023-02-08T04:26:44;33.95;;;22.25;;
30243;SDS011;64022;53.652;9.792;2023-02-08T04:29:09;30.90;;;21.20;;
30243;SDS011;64022;53.652;9.792;2023-02-08T04:31:35;29.13;;;20.17;;
30243;SDS011;64022;53.652;9.792;2023-02-08T04:34:00;32.47;;;22.17;;
30243;SDS011;64022;53.652;9.792;2023-02-08T04:36:26;31.30;;;21.37;;
30243;SDS011;64022;53.652;9.792;2023-02-08T04:38:52;29.17;;;21.30;;
30243;SDS011;64022;53.652;9.792;2023-02-08T04:41:18;29.90;;;20.53;;
30243;SDS011;64022;53.652;9.792;2023-02-08T04:43:43;29.23;;;20.40;;
30243;SDS011;64022;53.652;9.792;2023-02-08T04:46:09;29.43;;;20.50;;
30243;SDS011;64022;53.652;9.792;2023-02-08T04:48:35;28.33;;;20.17;;
30243;SDS011;64022;53.652;9.792;2023-02-08T04:51:00;29.30;;;20.30;;
30243;SDS011;64022;53.652;9.792;2023-02-08T04:53:26;30.73;;;20.53;;
30243;SDS011;64022;53.652;9.792;2023-02-08T04:55:51;28.50;;;20.40;;
30243;SDS011;64022;53.652;9.792;2023-02-08T04:58:17;26.93;;;19.23;;
30243;SDS011;64022;53.652;9.792;2023-02-08T05:00:43;29.87;;;21.43;;
30243;SDS011;64022;53.652;9.792;2023-02-08T05:03:09;27.90;;;20.13;;
30243;SDS011;64022;53.652;9.792;2023-02-08T05:05:34;27.33;;;19.77;;
30243;SDS011;64022;53.652;9.792;2023-02-08T05:08:00;28.03;;;19.53;;
30243;SDS011;64022;53.652;9.792;2023-02-08T05:10:26;31.73;;;21.60;;
30243;SDS011;64022;53.652;9.792;2023-02-08T05:12:52;27.83;;;19.97;;
30243;SDS011;64022;53.652;9.792;2023-02-08T05:15:18;30.80;;;21.03;;
30243;SDS011;64022;53.652;9.792;2023-02-08T05:17:43;27.97;;;19.63;;
30243;SDS011;64022;53.652;9.792;2023-02-08T05:20:09;30.17;;;19.77;;
30243;SDS011;64022;53.652;9.792;2023-02-08T05:22:36;27.40;;;19.52;;
30243;SDS011;64022;53.652;9.792;2023-02-08T05:25:02;28.33;;;19.47;;
30243;SDS011;64022;53.652;9.792;2023-02-08T05:27:28;28.73;;;19.30;;
30243;SDS011;64022;53.652;9.792;2023-02-08T05:29:54;24.83;;;17.87;;
30243;SDS011;64022;53.652;9.792;2023-02-08T05:32:19;26.00;;;18.53;;
30243;SDS011;64022;53.652;9.792;2023-02-08T05:34:45;26.93;;;18.40;;
30243;SDS011;64022;53.652;9.792;2023-02-08T05:37:11;26.95;;;18.50;;
30243;SDS011;64022;53.652;9.792;2023-02-08T05:39:38;26.80;;;17.65;;
30243;SDS011;64022;53.652;9.792;2023-02-08T05:42:04;26.97;;;18.47;;
30243;SDS011;64022;53.652;9.792;2023-02-08T05:44:29;24.83;;;17.57;;
30243;SDS011;64022;53.652;9.792;2023-02-08T05:46:55;26.57;;;17.87;;
30243;SDS011;64022;53.652;9.792;2023-02-08T05:49:20;25.20;;;16.97;;
30243;SDS011;64022;53.652;9.792;2023-02-08T05:51:46;22.90;;;17.10;;
30243;SDS011;64022;53.652;9.792;2023-02-08T05:54:14;26.30;;;17.65;;
30243;SDS011;64022;53.652;9.792;2023-02-08T05:56:40;26.87;;;18.67;;
30243;SDS011;64022;53.652;9.792;2023-02-08T05:59:05;24.27;;;17.60;;
30243;SDS011;64022;53.652;9.792;2023-02-08T06:01:31;24.73;;;17.27;;
30243;SDS011;64022;53.652;9.792;2023-02-08T06:03:57;21.87;;;16.27;;
30243;SDS011;64022;53.652;9.792;2023-02-08T06:06:23;26.10;;;17.77;;
30243;SDS011;64022;53.652;9.792;2023-02-08T06:08:49;25.80;;;17.90;;
30243;SDS011;64022;53.652;9.792;2023-02-08T06:11:14;22.60;;;16.03;;
30243;SDS011;64022;53.652;9.792;2023-02-08T06:13:40;22.88;;;16.90;;
30243;SDS011;64022;53.652;9.792;2023-02-08T06:16:06;22.30;;;16.23;;
30243;SDS011;64022;53.652;9.792;2023-02-08T06:18:32;24.13;;;16.20;;
30243;SDS011;64022;53.652;9.792;2023-02-08T06:20:57;24.53;;;16.87;;
30243;SDS011;64022;53.652;9.792;2023-02-08T06:23:23;26.33;;;17.70;;
30243;SDS011;64022;53.652;9.792;2023-02-08T06:25:49;23.20;;;17.00;;
30243;SDS011;64022;53.652;9.792;2023-02-08T06:28:14;23.10;;;16.17;;
30243;SDS011;64022;53.652;9.792;2023-02-08T06:30:40;25.70;;;17.37;;
30243;SDS011;64022;53.652;9.792;2023-02-08T06:33:06;23.63;;;16.70;;
30243;SDS011;64022;53.652;9.792;2023-02-08T06:35:31;21.17;;;16.13;;
30243;SDS011;64022;53.652;9.792;2023-02-08T06:37:57;22.87;;;15.93;;
30243;SDS011;64022;53.652;9.792;2023-02-08T06:40:23;23.77;;;15.53;;
30243;SDS011;64022;53.652;9.792;2023-02-08T06:42:48;23.30;;;16.10;;
30243;SDS011;64022;53.652;9.792;2023-02-08T06:45:14;23.27;;;16.33;;
30243;SDS011;64022;53.652;9.792;2023-02-08T06:47:40;23.73;;;16.37;;
30243;SDS011;64022;53.652;9.792;2023-02-08T06:50:06;22.20;;;16.20;;
30243;SDS011;64022;53.652;9.792;2023-02-08T06:52:33;31.83;;;18.55;;
30243;SDS011;64022;53.652;9.792;2023-02-08T06:54:58;33.83;;;19.57;;
30243;SDS011;64022;53.652;9.792;2023-02-08T06:57:24;37.93;;;22.13;;
30243;SDS011;64022;53.652;9.792;2023-02-08T06:59:51;36.80;;;20.23;;
30243;SDS011;64022;53.652;9.792;2023-02-08T07:02:17;41.58;;;20.63;;
30243;SDS011;64022;53.652;9.792;2023-02-08T07:04:44;37.20;;;19.67;;
30243;SDS011;64022;53.652;9.792;2023-02-08T07:07:14;34.37;;;19.67;;
30243;SDS011;64022;53.652;9.792;2023-02-08T07:09:41;30.85;;;17.60;;
30243;SDS011;64022;53.652;9.792;2023-02-08T07:12:07;30.35;;;16.17;;
30243;SDS011;64022;53.652;9.792;2023-02-08T07:14:34;29.53;;;16.07;;
30243;SDS011;64022;53.652;9.792;2023-02-08T07:17:02;27.30;;;14.60;;
30243;SDS011;64022;53.652;9.792;2023-02-08T07:19:28;27.45;;;16.02;;
30243;SDS011;64022;53.652;9.792;2023-02-08T07:21:54;26.23;;;14.57;;
30243;SDS011;64022;53.652;9.792;2023-02-08T07:24:20;25.90;;;14.33;;
30243;SDS011;64022;53.652;9.792;2023-02-08T07:26:45;24.37;;;13.07;;
30243;SDS011;64022;53.652;9.792;2023-02-08T07:29:11;24.80;;;13.38;;
30243;SDS011;64022;53.652;9.792;2023-02-08T07:31:37;23.98;;;13.20;;
30243;SDS011;64022;53.652;9.792;2023-02-08T07:34:02;26.83;;;14.20;;
30243;SDS011;64022;53.652;9.792;2023-02-08T07:36:28;22.83;;;12.67;;
30243;SDS011;64022;53.652;9.792;2023-02-08T07:38:53;18.88;;;11.63;;
30243;SDS011;64022;53.652;9.792;2023-02-08T07:41:19;26.15;;;12.50;;
30243;SDS011;64022;53.652;9.792;2023-02-08T07:43:44;21.57;;;13.00;;
30243;SDS011;64022;53.652;9.792;2023-02-08T07:46:11;18.20;;;11.25;;
30243;SDS011;64022;53.652;9.792;2023-02-08T07:48:38;19.63;;;12.00;;
30243;SDS011;64022;53.652;9.792;2023-02-08T07:51:04;22.23;;;12.23;;
30243;SDS011;64022;53.652;9.792;2023-02-08T07:53:30;20.30;;;11.30;;
30243;SDS011;64022;53.652;9.792;2023-02-08T07:55:56;21.38;;;11.57;;
30243;SDS011;64022;53.652;9.792;2023-02-08T07:58:22;23.03;;;12.03;;
30243;SDS011;64022;53.652;9.792;2023-02-08T08:00:48;20.83;;;10.53;;
30243;SDS011;64022;53.652;9.792;2023-02-08T08:03:14;19.23;;;11.33;;
30243;SDS011;64022;53.652;9.792;2023-02-08T08:05:40;19.10;;;10.60;;
30243;SDS011;64022;53.652;9.792;2023-02-08T08:08:06;18.55;;;11.07;;
30243;SDS011;64022;53.652;9.792;2023-02-08T08:10:35;19.08;;;11.05;;
30243;SDS011;64022;53.652;9.792;2023-02-08T08:13:03;19.48;;;10.90;;
30243;SDS011;64022;53.652;9.792;2023-02-08T08:15:28;18.38;;;11.30;;
30243;SDS011;64022;53.652;9.792;2023-02-08T08:17:54;17.20;;;10.57;;
30243;SDS011;64022;53.652;9.792;2023-02-08T08:20:20;29.07;;;16.73;;
30243;SDS011;64022;53.652;9.792;2023-02-08T08:22:46;27.00;;;16.17;;
30243;SDS011;64022;53.652;9.792;2023-02-08T08:25:11;32.93;;;18.40;;
30243;SDS011;64022;53.652;9.792;2023-02-08T08:27:37;31.63;;;17.10;;
30243;SDS011;64022;53.652;9.792;2023-02-08T08:30:10;33.83;;;18.57;;
30243;SDS011;64022;53.652;9.792;2023-02-08T08:32:37;32.72;;;18.52;;
30243;SDS011;64022;53.652;9.792;2023-02-08T08:35:03;36.93;;;19.07;;
30243;SDS011;64022;53.652;9.792;2023-02-08T08:37:29;36.80;;;19.55;;
30243;SDS011;64022;53.652;9.792;2023-02-08T08:39:55;36.53;;;19.30;;
30243;SDS011;64022;53.652;9.792;2023-02-08T08:42:21;29.00;;;17.87;;
30243;SDS011;64022;53.652;9.792;2023-02-08T08:44:46;33.40;;;18.70;;
30243;SDS011;64022;53.652;9.792;2023-02-08T08:47:12;32.27;;;18.57;;
30243;SDS011;64022;53.652;9.792;2023-02-08T08:49:38;31.50;;;17.73;;
30243;SDS011;64022;53.652;9.792;2023-02-08T08:52:04;26.73;;;16.27;;
30243;SDS011;64022;53.652;9.792;2023-02-08T08:54:32;30.08;;;16.88;;
30243;SDS011;64022;53.652;9.792;2023-02-08T08:56:58;28.27;;;16.38;;
30243;SDS011;64022;53.652;9.792;2023-02-08T08:59:23;24.40;;;15.18;;
30243;SDS011;64022;53.652;9.792;2023-02-08T09:01:49;27.67;;;16.15;;
30243;SDS011;64022;53.652;9.792;2023-02-08T09:04:15;25.40;;;15.17;;
30243;SDS011;64022;53.652;9.792;2023-02-08T09:06:40;27.93;;;15.27;;
30243;SDS011;64022;53.652;9.792;2023-02-08T09:09:06;23.60;;;14.87;;
30243;SDS011;64022;53.652;9.792;2023-02-08T09:11:31;26.57;;;15.13;;
30243;SDS011;64022;53.652;9.792;2023-02-08T09:13:57;23.37;;;13.93;;
30243;SDS011;64022;53.652;9.792;2023-02-08T09:16:23;23.95;;;13.10;;
30243;SDS011;64022;53.652;9.792;2023-02-08T09:18:49;23.33;;;13.17;;
30243;SDS011;64022;53.652;9.792;2023-02-08T09:21:16;29.20;;;14.37;;
30243;SDS011;64022;53.652;9.792;2023-02-08T09:23:43;22.50;;;13.20;;
30243;SDS011;64022;53.652;9.792;2023-02-08T09:26:11;24.02;;;14.68;;
30243;SDS011;64022;53.652;9.792;2023-02-08T09:28:38;24.85;;;13.15;;
30243;SDS011;64022;53.652;9.792;2023-02-08T09:31:08;25.03;;;14.57;;
30243;SDS011;64022;53.652;9.792;2023-02-08T09:33:34;23.70;;;13.40;;
30243;SDS011;64022;53.652;9.792;2023-02-08T09:36:00;22.33;;;13.70;;
30243;SDS011;64022;53.652;9.792;2023-02-08T09:38:25;20.87;;;12.87;;
30243;SDS011;64022;53.652;9.792;2023-02-08T09:41:02;27.08;;;14.63;;
30243;SDS011;64022;53.652;9.792;2023-02-08T09:43:49;21.92;;;13.90;;
30243;SDS011;64022;53.652;9.792;2023-02-08T09:46:18;22.65;;;13.25;;
30243;SDS011;64022;53.652;9.792;2023-02-08T09:48:46;22.65;;;14.40;;
30243;SDS011;64022;53.652;9.792;2023-02-08T09:51:26;22.38;;;14.13;;
30243;SDS011;64022;53.652;9.792;2023-02-08T09:54:05;19.35;;;13.43;;
30243;SDS011;64022;53.652;9.792;2023-02-08T09:56:32;21.70;;;13.80;;
30243;SDS011;64022;53.652;9.792;2023-02-08T09:59:01;25.20;;;14.63;;
30243;SDS011;64022;53.652;9.792;2023-02-08T10:01:27;22.33;;;13.40;;
30243;SDS011;64022;53.652;9.792;2023-02-08T10:04:08;26.13;;;15.02;;
30243;SDS011;64022;53.652;9.792;2023-02-08T10:06:39;23.65;;;14.57;;
30243;SDS011;64022;53.652;9.792;2023-02-08T10:09:05;25.13;;;14.32;;
30243;SDS011;64022;53.652;9.792;2023-02-08T10:14:28;26.33;;;14.60;;
30243;SDS011;64022;53.652;9.792;2023-02-08T10:17:07;21.17;;;13.32;;
30243;SDS011;64022;53.652;9.792;2023-02-08T10:22:52;22.27;;;14.25;;
30243;SDS011;64022;53.652;9.792;2023-02-08T10:34:00;22.27;;;13.70;;
30243;SDS011;64022;53.652;9.792;2023-02-08T10:36:30;22.13;;;14.02;;
30243;SDS011;64022;53.652;9.792;2023-02-08T10:38:59;22.67;;;13.98;;
30243;SDS011;64022;53.652;9.792;2023-02-08T10:41:32;22.35;;;14.75;;
30243;SDS011;64022;53.652;9.792;2023-02-08T10:46:31;22.75;;;15.00;;
30243;SDS011;64022;53.652;9.792;2023-02-08T10:49:07;32.47;;;14.75;;
30243;SDS011;64022;53.652;9.792;2023-02-08T10:51:40;24.08;;;15.15;;
30243;SDS011;64022;53.652;9.792;2023-02-08T10:54:09;19.73;;;13.67;;
30243;SDS011;64022;53.652;9.792;2023-02-08T10:56:45;22.17;;;14.70;;
30243;SDS011;64022;53.652;9.792;2023-02-08T10:59:28;22.60;;;14.27;;
30243;SDS011;64022;53.652;9.792;2023-02-08T11:02:16;21.05;;;14.10;;
30243;SDS011;64022;53.652;9.792;2023-02-08T11:07:24;20.60;;;13.82;;
30243;SDS011;64022;53.652;9.792;2023-02-08T11:09:49;18.37;;;13.33;;
30243;SDS011;64022;53.652;9.792;2023-02-08T11:12:18;23.03;;;13.40;;
30243;SDS011;64022;53.652;9.792;2023-02-08T11:14:47;21.80;;;15.27;;
30243;SDS011;64022;53.652;9.792;2023-02-08T11:17:24;21.02;;;14.63;;
30243;SDS011;64022;53.652;9.792;2023-02-08T11:19:55;22.10;;;14.88;;
30243;SDS011;64022;53.652;9.792;2023-02-08T11:22:22;23.38;;;14.45;;
30243;SDS011;64022;53.652;9.792;2023-02-08T11:24:54;22.10;;;14.90;;
30243;SDS011;64022;53.652;9.792;2023-02-08T11:27:38;25.02;;;15.57;;
30243;SDS011;64022;53.652;9.792;2023-02-08T11:32:43;19.83;;;13.98;;
30243;SDS011;64022;53.652;9.792;2023-02-08T11:37:49;22.35;;;15.02;;
30243;SDS011;64022;53.652;9.792;2023-02-08T11:40:42;22.17;;;15.40;;
30243;SDS011;64022;53.652;9.792;2023-02-08T11:43:08;22.75;;;15.25;;
30243;SDS011;64022;53.652;9.792;2023-02-08T11:45:48;21.27;;;14.80;;
30243;SDS011;64022;53.652;9.792;2023-02-08T11:48:33;24.70;;;15.30;;
30243;SDS011;64022;53.652;9.792;2023-02-08T11:51:00;22.00;;;15.55;;
30243;SDS011;64022;53.652;9.792;2023-02-08T11:53:31;23.60;;;15.93;;
30243;SDS011;64022;53.652;9.792;2023-02-08T11:56:02;23.70;;;15.60;;
30243;SDS011;64022;53.652;9.792;2023-02-08T11:58:30;22.95;;;15.35;;
30243;SDS011;64022;53.652;9.792;2023-02-08T12:01:09;24.37;;;15.80;;
30243;SDS011;64022;53.652;9.792;2023-02-08T12:03:43;23.30;;;15.30;;
30243;SDS011;64022;53.652;9.792;2023-02-08T12:12:09;23.20;;;15.77;;
30243;SDS011;64022;53.652;9.792;2023-02-08T12:14:56;22.65;;;15.65;;
30243;SDS011;64022;53.652;9.792;2023-02-08T12:17:39;21.73;;;15.60;;
30243;SDS011;64022;53.652;9.792;2023-02-08T12:20:31;32.25;;;16.95;;
30243;SDS011;64022;53.652;9.792;2023-02-08T12:23:06;35.60;;;17.88;;
30243;SDS011;64022;53.652;9.792;2023-02-08T12:31:10;25.67;;;15.13;;
30243;SDS011;64022;53.652;9.792;2023-02-08T12:36:17;26.60;;;14.15;;
30243;SDS011;64022;53.652;9.792;2023-02-08T12:39:12;26.80;;;15.27;;
30243;SDS011;64022;53.652;9.792;2023-02-08T12:44:57;22.80;;;14.13;;
30243;SDS011;64022;53.652;9.792;2023-02-08T12:53:25;24.63;;;13.85;;
30243;SDS011;64022;53.652;9.792;2023-02-08T12:55:57;22.73;;;13.10;;
30243;SDS011;64022;53.652;9.792;2023-02-08T12:58:28;22.73;;;14.55;;
30243;SDS011;64022;53.652;9.792;2023-02-08T13:01:17;20.83;;;12.50;;
30243;SDS011;64022;53.652;9.792;2023-02-08T13:06:39;24.63;;;13.65;;
30243;SDS011;64022;53.652;9.792;2023-02-08T13:11:58;20.58;;;12.52;;
30243;SDS011;64022;53.652;9.792;2023-02-08T13:14:39;25.08;;;13.32;;
30243;SDS011;64022;53.652;9.792;2023-02-08T13:17:16;19.92;;;12.20;;
30243;SDS011;64022;53.652;9.792;2023-02-08T13:20:02;20.00;;;13.07;;
30243;SDS011;64022;53.652;9.792;2023-02-08T13:22:33;21.58;;;13.43;;
30243;SDS011;64022;53.652;9.792;2023-02-08T13:25:03;24.05;;;12.95;;
30243;SDS011;64022;53.652;9.792;2023-02-08T13:27:38;18.75;;;12.38;;
30243;SDS011;64022;53.652;9.792;2023-02-08T13:30:04;21.70;;;12.57;;
30243;SDS011;64022;53.652;9.792;2023-02-08T13:32:34;18.35;;;11.85;;
30243;SDS011;64022;53.652;9.792;2023-02-08T13:35:17;19.60;;;13.13;;
30243;SDS011;64022;53.652;9.792;2023-02-08T13:37:51;18.75;;;12.50;;
30243;SDS011;64022;53.652;9.792;2023-02-08T13:40:33;21.30;;;12.52;;
30243;SDS011;64022;53.652;9.792;2023-02-08T13:43:01;21.02;;;12.45;;
30243;SDS011;64022;53.652;9.792;2023-02-08T13:45:49;20.52;;;13.00;;
30243;SDS011;64022;53.652;9.792;2023-02-08T13:48:17;19.52;;;12.23;;
30243;SDS011;64022;53.652;9.792;2023-02-08T13:53:12;23.00;;;12.57;;
30243;SDS011;64022;53.652;9.792;2023-02-08T13:55:42;19.52;;;13.40;;
30243;SDS011;64022;53.652;9.792;2023-02-08T14:06:05;21.23;;;13.02;;
30243;SDS011;64022;53.652;9.792;2023-02-08T14:08:49;20.20;;;12.55;;
30243;SDS011;64022;53.652;9.792;2023-02-08T14:14:34;24.50;;;14.18;;
30243;SDS011;64022;53.652;9.792;2023-02-08T14:17:15;18.85;;;12.75;;
30243;SDS011;64022;53.652;9.792;2023-02-08T14:19:55;18.95;;;12.95;;
30243;SDS011;64022;53.652;9.792;2023-02-08T14:22:46;19.52;;;12.73;;
30243;SDS011;64022;53.652;9.792;2023-02-08T14:25:25;22.63;;;13.57;;
30243;SDS011;64022;53.652;9.792;2023-02-08T14:30:24;20.15;;;13.65;;
30243;SDS011;64022;53.652;9.792;2023-02-08T14:32:54;20.35;;;12.38;;
30243;SDS011;64022;53.652;9.792;2023-02-08T14:35:36;20.55;;;13.18;;
30243;SDS011;64022;53.652;9.792;2023-02-08T14:45:44;20.30;;;13.55;;
30243;SDS011;64022;53.652;9.792;2023-02-08T14:48:23;20.17;;;13.05;;
30243;SDS011;64022;53.652;9.792;2023-02-08T14:53:48;22.13;;;13.23;;
30243;SDS011;64022;53.652;9.792;2023-02-08T14:58:53;20.77;;;13.52;;
30243;SDS011;64022;53.652;9.792;2023-02-08T15:03:52;19.02;;;12.52;;
30243;SDS011;64022;53.652;9.792;2023-02-08T15:06:35;20.80;;;12.98;;
30243;SDS011;64022;53.652;9.792;2023-02-08T15:09:25;19.63;;;13.18;;
30243;SDS011;64022;53.652;9.792;2023-02-08T15:11:58;20.92;;;13.38;;
30243;SDS011;64022;53.652;9.792;2023-02-08T15:14:23;20.42;;;13.40;;
30243;SDS011;64022;53.652;9.792;2023-02-08T15:16:49;19.37;;;12.80;;
30243;SDS011;64022;53.652;9.792;2023-02-08T15:19:22;19.45;;;13.15;;
30243;SDS011;64022;53.652;9.792;2023-02-08T15:21:52;20.15;;;12.80;;
30243;SDS011;64022;53.652;9.792;2023-02-08T15:24:19;19.70;;;13.05;;
30243;SDS011;64022;53.652;9.792;2023-02-08T15:26:51;20.63;;;13.48;;
30243;SDS011;64022;53.652;9.792;2023-02-08T15:31:47;17.80;;;13.38;;
30243;SDS011;64022;53.652;9.792;2023-02-08T15:34:14;23.02;;;13.38;;
30243;SDS011;64022;53.652;9.792;2023-02-08T15:36:43;19.95;;;13.70;;
30243;SDS011;64022;53.652;9.792;2023-02-08T15:39:22;20.23;;;12.73;;
30243;SDS011;64022;53.652;9.792;2023-02-08T15:41:48;20.60;;;13.45;;
30243;SDS011;64022;53.652;9.792;2023-02-08T15:44:19;21.73;;;14.10;;
30243;SDS011;64022;53.652;9.792;2023-02-08T15:46:47;21.27;;;13.23;;
30243;SDS011;64022;53.652;9.792;2023-02-08T15:49:15;20.95;;;12.75;;
30243;SDS011;64022;53.652;9.792;2023-02-08T15:51:43;24.05;;;13.02;;
30243;SDS011;64022;53.652;9.792;2023-02-08T15:54:13;20.63;;;13.55;;
30243;SDS011;64022;53.652;9.792;2023-02-08T15:56:44;21.27;;;14.75;;
30243;SDS011;64022;53.652;9.792;2023-02-08T15:59:27;20.35;;;13.75;;
30243;SDS011;64022;53.652;9.792;2023-02-08T16:01:56;20.77;;;14.20;;
30243;SDS011;64022;53.652;9.792;2023-02-08T16:04:42;24.05;;;14.65;;
30243;SDS011;64022;53.652;9.792;2023-02-08T16:07:18;21.23;;;13.65;;
30243;SDS011;64022;53.652;9.792;2023-02-08T16:09:49;22.45;;;14.65;;
30243;SDS011;64022;53.652;9.792;2023-02-08T16:12:18;22.43;;;14.73;;
30243;SDS011;64022;53.652;9.792;2023-02-08T16:14:45;20.20;;;13.85;;
30243;SDS011;64022;53.652;9.792;2023-02-08T16:22:53;23.88;;;14.80;;
30243;SDS011;64022;53.652;9.792;2023-02-08T16:25:34;23.52;;;15.48;;
30243;SDS011;64022;53.652;9.792;2023-02-08T16:28:16;22.55;;;15.25;;
30243;SDS011;64022;53.652;9.792;2023-02-08T16:30:52;25.13;;;16.13;;
30243;SDS011;64022;53.652;9.792;2023-02-08T16:33:19;22.63;;;15.38;;
30243;SDS011;64022;53.652;9.792;2023-02-08T16:35:45;21.87;;;15.83;;
30243;SDS011;64022;53.652;9.792;2023-02-08T16:38:11;25.07;;;16.00;;
30243;SDS011;64022;53.652;9.792;2023-02-08T16:40:53;24.05;;;16.08;;
30243;SDS011;64022;53.652;9.792;2023-02-08T16:46:33;25.83;;;17.27;;
30243;SDS011;64022;53.652;9.792;2023-02-08T16:48:50;22.80;;;16.50;;
30243;SDS011;64022;53.652;9.792;2023-02-08T16:51:35;24.27;;;16.70;;
30243;SDS011;64022;53.652;9.792;2023-02-08T16:54:09;24.52;;;16.58;;
30243;SDS011;64022;53.652;9.792;2023-02-08T16:56:40;25.17;;;17.23;;
30243;SDS011;64022;53.652;9.792;2023-02-08T16:59:06;23.33;;;16.45;;
30243;SDS011;64022;53.652;9.792;2023-02-08T17:01:33;31.05;;;18.02;;
30243;SDS011;64022;53.652;9.792;2023-02-08T17:03:59;26.92;;;18.48;;
30243;SDS011;64022;53.652;9.792;2023-02-08T17:06:28;24.63;;;17.63;;